Time;durP1;ratioP1;P1;durP2;ratioP2;P2;SDS_P1;SDS_P2;PMS_P1;PMS_P2;Temp;Humidity;BMP_temperature;BMP_pressure;BME280_temperature;BME280_humidity;BME280_pressure;Samples;Min_cycle;Max_cycle;Signal;HPM_P1;HPM_P2
2021/12/29 00:02:14;;;;;;;;;;;16.60;99.90;;;;;;5076609;28;872;-55
2021/12/29 00:04:41;;;;;;;;;;;16.60;99.90;;;;;;5077706;28;881;-55
2021/12/29 00:07:10;;;;;;;;;;;16.60;99.90;;;;;;5076463;28;1967;-55
2021/12/29 00:09:39;;;;;;;;;;;16.60;99.90;;;;;;5075978;28;1231;-54
2021/12/29 00:12:07;;;;;;;;;;;16.60;99.90;;;;;;5077150;28;1025;-54
2021/12/29 00:14:33;;;;;;;;;;;16.50;99.90;;;;;;5075776;28;899;-54
2021/12/29 00:16:59;;;;;;;;;;;16.50;99.90;;;;;;5070277;28;1008;-54
2021/12/29 00:19:25;;;;;;;;;;;16.50;99.90;;;;;;5070866;28;1052;-55
2021/12/29 00:21:51;;;;;;;;;;;16.50;99.90;;;;;;5074202;28;1158;-54
2021/12/29 00:24:17;;;;;;;;;;;16.50;99.90;;;;;;5072702;28;1078;-54
2021/12/29 00:26:44;;;;;;;;;;;16.50;99.90;;;;;;5074338;28;1902;-54
2021/12/29 00:29:10;;;;;;;;;;;16.50;99.90;;;;;;5075144;28;1292;-54
2021/12/29 00:31:36;;;;;;;;;;;16.50;99.90;;;;;;5074056;28;1409;-54
2021/12/29 00:34:02;;;;;;;;;;;16.40;99.90;;;;;;5069910;28;1242;-54
2021/12/29 00:36:28;;;;;;;;;;;16.40;99.90;;;;;;5073016;28;1338;-56
2021/12/29 00:38:54;;;;;;;;;;;16.40;99.90;;;;;;5076101;28;1487;-54
2021/12/29 00:41:20;;;;;;;;;;;16.40;99.90;;;;;;5076945;28;833;-54
2021/12/29 00:43:46;;;;;;;;;;;16.30;99.90;;;;;;5076571;28;853;-54
2021/12/29 00:46:15;;;;;;;;;;;16.30;99.90;;;;;;5077455;28;1901;-45
2021/12/29 00:48:44;;;;;;;;;;;16.20;99.90;;;;;;5076683;28;922;-45
2021/12/29 00:51:11;;;;;;;;;;;16.30;99.90;;;;;;5076632;28;836;-45
2021/12/29 00:53:38;;;;;;;;;;;16.30;99.90;;;;;;5073157;28;1088;-45
2021/12/29 00:56:04;;;;;;;;;;;16.20;99.90;;;;;;5058310;28;982;-45
2021/12/29 00:58:32;;;;;;;;;;;16.20;99.90;;;;;;5076435;28;832;-45
2021/12/29 01:00:58;;;;;;;;;;;16.20;99.90;;;;;;5076409;28;916;-45
2021/12/29 01:03:24;;;;;;;;;;;16.20;99.90;;;;;;5076447;28;836;-45
2021/12/29 01:05:50;;;;;;;;;;;16.20;99.90;;;;;;5074455;28;1902;-45
2021/12/29 01:08:17;;;;;;;;;;;16.20;99.90;;;;;;5076234;28;868;-45
2021/12/29 01:10:43;;;;;;;;;;;16.20;99.90;;;;;;5076209;28;908;-45
2021/12/29 01:13:11;;;;;;;;;;;16.10;99.90;;;;;;5076145;28;1109;-45
2021/12/29 01:15:56;;;;;;;;;;;16.10;99.90;;;;;;5033033;28;924;-45
2021/12/29 01:18:23;;;;;;;;;;;16.10;99.90;;;;;;5076751;28;861;-45
2021/12/29 01:20:51;;;;;;;;;;;16.10;99.90;;;;;;5076240;28;873;-45
2021/12/29 01:23:17;;;;;;;;;;;16.10;99.90;;;;;;5075871;28;924;-45
2021/12/29 01:25:44;;;;;;;;;;;16.00;99.90;;;;;;5075878;28;1922;-45
2021/12/29 01:28:10;;;;;;;;;;;16.00;99.90;;;;;;5076064;28;855;-45
2021/12/29 01:30:36;;;;;;;;;;;16.00;99.90;;;;;;5076323;28;888;-45
2021/12/29 01:33:06;;;;;;;;;;;16.00;99.90;;;;;;5076021;28;876;-46
2021/12/29 01:35:35;;;;;;;;;;;16.00;99.90;;;;;;5075907;28;883;-45
2021/12/29 01:38:01;;;;;;;;;;;16.00;99.90;;;;;;5076064;28;840;-45
2021/12/29 01:40:28;;;;;;;;;;;15.90;99.90;;;;;;5075509;28;1460;-45
2021/12/29 01:42:55;;;;;;;;;;;15.90;99.90;;;;;;5075872;28;963;-45
2021/12/29 01:45:22;;;;;;;;;;;15.90;99.90;;;;;;5075853;28;1906;-45
2021/12/29 01:47:49;;;;;;;;;;;15.90;99.90;;;;;;5075893;28;824;-45
2021/12/29 01:50:17;;;;;;;;;;;15.80;99.90;;;;;;5076241;28;944;-55
2021/12/29 01:52:51;;;;;;;;;;;15.80;99.90;;;;;;5075494;28;1050;-45
2021/12/29 01:55:17;;;;;;;;;;;15.80;99.90;;;;;;5074334;28;920;-45
2021/12/29 01:57:43;;;;;;;;;;;15.70;99.90;;;;;;5073841;28;1371;-55
2021/12/29 02:00:18;;;;;;;;;;;15.80;99.90;;;;;;5075677;28;868;-55
2021/12/29 02:02:44;;;;;;;;;;;15.80;99.90;;;;;;5075690;28;881;-59
2021/12/29 02:05:10;;;;;;;;;;;15.70;99.90;;;;;;5076495;28;940;-54
2021/12/29 02:07:36;;;;;;;;;;;15.70;99.90;;;;;;5076053;28;944;-54
2021/12/29 02:10:03;;;;;;;;;;;15.70;99.90;;;;;;5075952;28;872;-55
2021/12/29 02:12:30;;;;;;;;;;;15.70;99.90;;;;;;5075946;28;872;-46
2021/12/29 02:14:57;;;;;;;;;;;15.70;99.90;;;;;;5075713;28;845;-55
2021/12/29 02:17:24;;;;;;;;;;;15.70;99.90;;;;;;5075786;28;1642;-55
2021/12/29 02:19:52;;;;;;;;;;;15.70;99.90;;;;;;5075565;28;879;-55
2021/12/29 02:22:43;;;;;;;;;;;15.70;99.90;;;;;;5057646;28;946;-54
2021/12/29 02:25:51;;;;;;;;;;;15.60;99.90;;;;;;5075226;28;1485;-45
2021/12/29 02:27:55;;;;;;;;;;;15.60;99.90;;;;;;5071672;28;1431;-45
2021/12/29 02:30:23;;;;;;;;;;;15.60;99.90;;;;;;5075520;28;1085;-45
2021/12/29 02:32:55;;;;;;;;;;;15.60;99.90;;;;;;5074188;28;913;-55
2021/12/29 02:35:22;;;;;;;;;;;15.60;99.90;;;;;;5078106;28;908;-55
2021/12/29 02:37:50;;;;;;;;;;;15.60;99.90;;;;;;5079479;28;875;-55
2021/12/29 02:40:16;;;;;;;;;;;15.50;99.90;;;;;;5079530;28;863;-55
2021/12/29 02:42:43;;;;;;;;;;;15.60;99.90;;;;;;5078765;28;900;-54
2021/12/29 02:45:10;;;;;;;;;;;15.60;99.90;;;;;;5079319;28;921;-55
2021/12/29 02:47:36;;;;;;;;;;;15.60;99.90;;;;;;5079158;28;1906;-54
2021/12/29 02:50:03;;;;;;;;;;;15.50;99.90;;;;;;5079302;28;1660;-54
2021/12/29 02:52:29;;;;;;;;;;;15.50;99.90;;;;;;5077600;28;1041;-54
2021/12/29 02:54:56;;;;;;;;;;;15.50;99.90;;;;;;5079193;28;865;-55
2021/12/29 02:57:23;;;;;;;;;;;15.40;99.90;;;;;;5078584;28;1003;-54
2021/12/29 02:59:49;;;;;;;;;;;15.40;99.90;;;;;;5078851;28;880;-55
2021/12/29 03:02:15;;;;;;;;;;;15.30;99.90;;;;;;5078782;28;880;-55
2021/12/29 03:04:41;;;;;;;;;;;15.40;99.90;;;;;;5078708;28;805;-55
2021/12/29 03:07:07;;;;;;;;;;;15.40;99.90;;;;;;5077074;28;1910;-55
2021/12/29 03:09:33;;;;;;;;;;;15.30;99.90;;;;;;5078529;28;917;-55
2021/12/29 03:12:00;;;;;;;;;;;15.40;99.90;;;;;;5073175;28;896;-55
2021/12/29 03:14:27;;;;;;;;;;;15.40;99.90;;;;;;5079018;28;969;-55
2021/12/29 03:16:54;;;;;;;;;;;15.40;99.90;;;;;;5078437;28;903;-55
2021/12/29 03:19:22;;;;;;;;;;;15.30;99.90;;;;;;5078666;28;830;-55
2021/12/29 03:21:50;;;;;;;;;;;15.40;99.90;;;;;;5078387;28;850;-55
2021/12/29 03:24:20;;;;;;;;;;;15.40;99.90;;;;;;5078548;28;1059;-54
2021/12/29 03:26:47;;;;;;;;;;;15.30;99.90;;;;;;5077537;28;1889;-55
2021/12/29 03:29:13;;;;;;;;;;;15.30;99.90;;;;;;5078275;28;829;-54
2021/12/29 03:31:41;;;;;;;;;;;15.30;99.90;;;;;;5078502;28;875;-55
2021/12/29 03:34:07;;;;;;;;;;;15.30;99.90;;;;;;5078193;28;885;-55
2021/12/29 03:36:33;;;;;;;;;;;15.30;99.90;;;;;;5078145;28;872;-55
2021/12/29 03:38:59;;;;;;;;;;;15.30;99.90;;;;;;5078306;28;843;-55
2021/12/29 03:41:26;;;;;;;;;;;15.30;99.90;;;;;;5077692;28;851;-55
2021/12/29 03:43:54;;;;;;;;;;;15.30;99.90;;;;;;5078153;28;801;-55
2021/12/29 03:46:20;;;;;;;;;;;15.20;99.90;;;;;;5077799;28;1894;-55
2021/12/29 03:48:47;;;;;;;;;;;15.20;99.90;;;;;;5078129;28;872;-55
2021/12/29 03:51:13;;;;;;;;;;;15.20;99.90;;;;;;5077854;28;852;-55
2021/12/29 03:53:40;;;;;;;;;;;15.20;99.90;;;;;;5076506;28;1212;-55
2021/12/29 03:56:06;;;;;;;;;;;15.20;99.90;;;;;;5074778;28;1029;-54
2021/12/29 03:58:32;;;;;;;;;;;15.20;99.90;;;;;;5079178;28;869;-55
2021/12/29 04:01:03;;;;;;;;;;;15.20;99.90;;;;;;5077655;28;950;-55
2021/12/29 04:03:29;;;;;;;;;;;15.10;99.90;;;;;;5077999;28;778;-55
2021/12/29 04:05:56;;;;;;;;;;;15.10;99.90;;;;;;5076181;28;1902;-55
2021/12/29 04:08:24;;;;;;;;;;;15.10;99.90;;;;;;5077621;28;888;-55
2021/12/29 04:10:50;;;;;;;;;;;15.10;99.90;;;;;;5059424;28;911;-55
2021/12/29 04:13:16;;;;;;;;;;;15.10;99.90;;;;;;5077278;28;888;-55
2021/12/29 04:15:42;;;;;;;;;;;15.10;99.90;;;;;;5076084;28;1043;-55
2021/12/29 04:18:15;;;;;;;;;;;15.10;99.90;;;;;;5077282;28;948;-55
2021/12/29 04:20:57;;;;;;;;;;;15.10;99.90;;;;;;5076963;28;868;-45
2021/12/29 04:23:30;;;;;;;;;;;15.10;99.90;;;;;;5076837;28;1659;-55
2021/12/29 04:25:56;;;;;;;;;;;15.00;99.90;;;;;;5058906;28;1907;-55
2021/12/29 04:28:25;;;;;;;;;;;15.00;99.90;;;;;;5078099;28;963;-46
2021/12/29 04:30:59;;;;;;;;;;;15.00;99.90;;;;;;5076751;28;836;-45
2021/12/29 04:33:27;;;;;;;;;;;15.00;99.90;;;;;;5076892;28;876;-45
2021/12/29 04:35:53;;;;;;;;;;;15.00;99.90;;;;;;5076865;28;978;-45
2021/12/29 04:38:21;;;;;;;;;;;15.00;99.90;;;;;;5076952;28;857;-45
2021/12/29 04:40:49;;;;;;;;;;;15.00;99.90;;;;;;5076359;28;1083;-45
2021/12/29 04:43:16;;;;;;;;;;;15.00;99.90;;;;;;5076666;28;896;-45
2021/12/29 04:45:42;;;;;;;;;;;15.00;99.90;;;;;;5076867;28;1909;-45
2021/12/29 04:48:13;;;;;;;;;;;15.00;99.90;;;;;;5076764;28;824;-45
2021/12/29 04:50:40;;;;;;;;;;;15.00;99.90;;;;;;5076335;28;892;-45
2021/12/29 04:53:08;;;;;;;;;;;15.00;99.90;;;;;;5076584;28;1131;-45
2021/12/29 04:55:36;;;;;;;;;;;15.00;99.90;;;;;;5076884;28;836;-45
2021/12/29 04:58:04;;;;;;;;;;;14.90;99.90;;;;;;5077728;28;856;-45
2021/12/29 05:00:32;;;;;;;;;;;14.90;99.90;;;;;;5076499;28;843;-45
2021/12/29 05:02:59;;;;;;;;;;;14.90;99.90;;;;;;5076481;28;907;-45
2021/12/29 05:10:45;;;;;;;;;;;14.90;99.90;;;;;;5068942;28;1381;-45
2021/12/29 05:13:11;;;;;;;;;;;14.80;99.90;;;;;;5071063;28;836;-45
2021/12/29 05:15:37;;;;;;;;;;;14.80;99.90;;;;;;5076265;28;888;-45
2021/12/29 05:18:05;;;;;;;;;;;14.80;99.90;;;;;;5076502;28;923;-45
2021/12/29 05:20:31;;;;;;;;;;;14.80;99.90;;;;;;5069870;28;1101;-45
2021/12/29 05:22:59;;;;;;;;;;;14.80;99.90;;;;;;5058298;28;989;-45
2021/12/29 05:25:26;;;;;;;;;;;14.80;99.90;;;;;;5086827;28;943;-45
2021/12/29 05:27:53;;;;;;;;;;;14.80;99.90;;;;;;5070767;28;1977;-45
2021/12/29 05:30:20;;;;;;;;;;;14.80;99.90;;;;;;5076223;28;991;-45
2021/12/29 05:32:46;;;;;;;;;;;14.80;99.90;;;;;;5075865;28;908;-45
2021/12/29 05:35:13;;;;;;;;;;;14.80;99.90;;;;;;5074730;28;1002;-45
2021/12/29 05:37:39;;;;;;;;;;;14.80;99.90;;;;;;5072349;28;1373;-46
2021/12/29 05:40:07;;;;;;;;;;;14.80;99.90;;;;;;5069753;28;924;-45
2021/12/29 05:42:34;;;;;;;;;;;14.70;99.90;;;;;;5074364;28;842;-45
2021/12/29 05:45:06;;;;;;;;;;;14.80;99.90;;;;;;5075136;28;1286;-45
2021/12/29 05:47:33;;;;;;;;;;;14.80;99.90;;;;;;5075205;28;1965;-45
2021/12/29 05:50:01;;;;;;;;;;;14.80;99.90;;;;;;5076079;28;932;-46
2021/12/29 05:52:28;;;;;;;;;;;14.70;99.90;;;;;;5074682;28;1054;-45
2021/12/29 05:54:54;;;;;;;;;;;14.80;99.90;;;;;;5075727;28;914;-45
2021/12/29 05:57:20;;;;;;;;;;;14.70;99.90;;;;;;5075421;28;911;-45
2021/12/29 05:59:47;;;;;;;;;;;14.70;99.90;;;;;;5075745;28;903;-46
2021/12/29 06:02:13;;;;;;;;;;;14.70;99.90;;;;;;5075943;28;805;-45
2021/12/29 06:04:39;;;;;;;;;;;14.70;99.90;;;;;;5076016;28;833;-45
2021/12/29 06:07:06;;;;;;;;;;;14.80;99.90;;;;;;5075853;28;1917;-45
2021/12/29 06:09:33;;;;;;;;;;;14.80;99.90;;;;;;5078377;28;817;-45
2021/12/29 06:12:00;;;;;;;;;;;14.90;99.90;;;;;;5079645;28;1040;-45
2021/12/29 06:14:26;;;;;;;;;;;14.90;99.90;;;;;;5079905;28;960;-45
2021/12/29 06:16:52;;;;;;;;;;;14.90;99.90;;;;;;5038896;28;1269;-45
2021/12/29 06:19:18;;;;;;;;;;;14.90;99.90;;;;;;5079624;28;876;-45
2021/12/29 06:21:44;;;;;;;;;;;14.90;99.90;;;;;;5078159;28;982;-45
2021/12/29 06:24:11;;;;;;;;;;;14.90;99.90;;;;;;5079486;28;888;-45
2021/12/29 06:26:39;;;;;;;;;;;14.90;99.90;;;;;;5078412;28;1910;-45
2021/12/29 06:29:05;;;;;;;;;;;15.00;99.90;;;;;;5079583;28;1009;-45
2021/12/29 06:31:33;;;;;;;;;;;15.10;99.90;;;;;;5079235;28;891;-45
2021/12/29 06:33:59;;;;;;;;;;;15.10;99.90;;;;;;5079520;28;892;-45
2021/12/29 06:36:25;;;;;;;;;;;15.20;99.90;;;;;;5079171;28;1070;-45
2021/12/29 06:38:51;;;;;;;;;;;15.20;99.90;;;;;;5079193;28;821;-45
2021/12/29 06:41:17;;;;;;;;;;;15.30;99.90;;;;;;5079228;28;863;-45
2021/12/29 06:43:43;;;;;;;;;;;15.40;99.90;;;;;;5079194;28;840;-45
2021/12/29 06:46:11;;;;;;;;;;;15.40;99.90;;;;;;5082226;28;1959;-45
2021/12/29 06:48:38;;;;;;;;;;;15.50;99.90;;;;;;5079049;28;863;-45
2021/12/29 06:51:05;;;;;;;;;;;15.50;99.90;;;;;;5078998;28;867;-45
2021/12/29 06:53:32;;;;;;;;;;;15.60;99.90;;;;;;5078819;28;1053;-45
2021/12/29 06:55:59;;;;;;;;;;;15.60;99.90;;;;;;5079105;28;858;-45
2021/12/29 06:58:25;;;;;;;;;;;15.70;99.90;;;;;;5060930;28;914;-45
2021/12/29 07:00:51;;;;;;;;;;;15.70;99.90;;;;;;5078848;28;1203;-45
2021/12/29 07:03:17;;;;;;;;;;;15.80;99.90;;;;;;5078073;28;863;-45
2021/12/29 07:05:44;;;;;;;;;;;15.80;99.90;;;;;;5079078;28;904;-54
2021/12/29 07:08:11;;;;;;;;;;;15.90;99.90;;;;;;5076753;28;1977;-55
2021/12/29 07:10:40;;;;;;;;;;;15.90;99.90;;;;;;5078901;28;908;-54
2021/12/29 07:13:08;;;;;;;;;;;16.00;99.90;;;;;;5078321;28;870;-55
2021/12/29 07:15:35;;;;;;;;;;;16.00;99.90;;;;;;5079045;28;869;-55
2021/12/29 07:18:01;;;;;;;;;;;16.00;99.90;;;;;;5075131;28;1051;-54
2021/12/29 07:20:27;;;;;;;;;;;16.10;99.90;;;;;;5078139;28;1371;-54
2021/12/29 07:22:53;;;;;;;;;;;16.10;99.90;;;;;;5078461;28;835;-54
2021/12/29 07:25:19;;;;;;;;;;;16.20;99.90;;;;;;5078390;28;876;-55
2021/12/29 07:27:45;;;;;;;;;;;16.20;99.90;;;;;;5078150;28;1969;-55
2021/12/29 07:30:12;;;;;;;;;;;16.20;99.90;;;;;;5078182;28;889;-54
2021/12/29 07:32:39;;;;;;;;;;;16.20;99.90;;;;;;5078066;28;911;-55
2021/12/29 07:35:06;;;;;;;;;;;16.30;99.90;;;;;;5078243;28;828;-54
2021/12/29 07:37:32;;;;;;;;;;;16.30;99.90;;;;;;5073565;28;883;-54
2021/12/29 07:40:01;;;;;;;;;;;16.30;99.90;;;;;;5078067;28;928;-54
2021/12/29 07:42:28;;;;;;;;;;;16.40;99.90;;;;;;5077886;28;918;-55
2021/12/29 07:44:54;;;;;;;;;;;16.40;99.90;;;;;;5077898;28;924;-54
2021/12/29 07:47:24;;;;;;;;;;;16.40;99.90;;;;;;5081955;28;1967;-52
2021/12/29 07:49:50;;;;;;;;;;;16.40;99.90;;;;;;5062148;28;1499;-46
2021/12/29 07:52:18;;;;;;;;;;;16.40;99.90;;;;;;5077679;28;1711;-46
2021/12/29 07:54:50;;;;;;;;;;;16.40;99.90;;;;;;5075265;28;1162;-54
2021/12/29 07:57:20;;;;;;;;;;;16.50;99.90;;;;;;5078587;28;941;-54
2021/12/29 07:59:47;;;;;;;;;;;16.40;99.90;;;;;;5076756;28;907;-46
2021/12/29 08:02:16;;;;;;;;;;;16.40;99.90;;;;;;5078119;28;1033;-46
2021/12/29 08:04:44;;;;;;;;;;;16.50;99.90;;;;;;5077577;28;905;-46
2021/12/29 08:07:12;;;;;;;;;;;16.50;99.90;;;;;;5077472;28;1963;-54
2021/12/29 08:09:40;;;;;;;;;;;16.50;99.90;;;;;;5076551;28;916;-54
2021/12/29 08:12:06;;;;;;;;;;;16.50;99.90;;;;;;5077415;28;930;-54
2021/12/29 08:14:34;;;;;;;;;;;16.50;99.90;;;;;;5077006;28;925;-54
2021/12/29 08:17:02;;;;;;;;;;;16.50;99.90;;;;;;5074230;28;915;-55
2021/12/29 08:19:28;;;;;;;;;;;16.50;99.90;;;;;;5077368;28;840;-55
2021/12/29 08:21:55;;;;;;;;;;;16.50;99.90;;;;;;5077145;28;863;-55
2021/12/29 08:24:21;;;;;;;;;;;16.60;99.90;;;;;;5076248;28;876;-55
2021/12/29 08:26:47;;;;;;;;;;;16.60;99.90;;;;;;5077181;28;1906;-55
2021/12/29 08:29:14;;;;;;;;;;;16.60;99.90;;;;;;5077068;28;809;-55
2021/12/29 08:31:41;;;;;;;;;;;16.60;99.90;;;;;;5076238;28;841;-54
2021/12/29 08:34:07;;;;;;;;;;;16.60;99.90;;;;;;5075336;28;1022;-55
2021/12/29 08:36:33;;;;;;;;;;;16.60;99.90;;;;;;5074626;28;870;-54
2021/12/29 08:39:00;;;;;;;;;;;16.70;99.90;;;;;;5075277;28;877;-54
2021/12/29 08:41:26;;;;;;;;;;;16.60;99.90;;;;;;5074360;28;1047;-54
2021/12/29 08:43:52;;;;;;;;;;;16.60;99.90;;;;;;5074983;28;828;-54
2021/12/29 08:46:19;;;;;;;;;;;16.60;99.90;;;;;;5074716;28;1906;-54
2021/12/29 08:48:46;;;;;;;;;;;16.70;99.90;;;;;;5075136;28;900;-54
2021/12/29 08:51:15;;;;;;;;;;;16.70;99.90;;;;;;5069604;28;889;-54
2021/12/29 08:53:42;;;;;;;;;;;16.70;99.90;;;;;;5069520;28;1080;-55
2021/12/29 08:56:08;;;;;;;;;;;16.70;99.90;;;;;;5068462;28;1044;-55
2021/12/29 08:58:34;;;;;;;;;;;16.70;99.90;;;;;;5074509;28;924;-54
2021/12/29 09:01:00;;;;;;;;;;;16.70;99.90;;;;;;5074908;28;877;-54
2021/12/29 09:03:27;;;;;;;;;;;16.70;99.90;;;;;;5068612;28;1166;-54
2021/12/29 09:05:53;;;;;;;;;;;16.70;99.90;;;;;;5076038;28;813;-54
2021/12/29 09:08:20;;;;;;;;;;;16.70;99.90;;;;;;5072229;28;1909;-54
2021/12/29 09:10:46;;;;;;;;;;;16.70;99.90;;;;;;5076380;28;868;-54
2021/12/29 09:13:13;;;;;;;;;;;16.70;99.90;;;;;;5072084;28;1146;-54
2021/12/29 09:15:42;;;;;;;;;;;16.70;99.90;;;;;;5074329;28;1292;-54
2021/12/29 09:18:08;;;;;;;;;;;16.70;99.90;;;;;;5075781;28;1439;-54
2021/12/29 09:20:37;;;;;;;;;;;16.70;99.90;;;;;;5072872;28;944;-55
2021/12/29 09:23:04;;;;;;;;;;;16.80;99.90;;;;;;5076163;28;928;-55
2021/12/29 09:25:30;;;;;;;;;;;16.80;99.90;;;;;;5073155;28;949;-55
2021/12/29 09:27:57;;;;;;;;;;;16.80;99.90;;;;;;5076051;28;1968;-54
2021/12/29 09:30:25;;;;;;;;;;;16.80;99.90;;;;;;5076072;28;919;-54
2021/12/29 09:32:51;;;;;;;;;;;16.70;99.90;;;;;;5075823;28;960;-54
2021/12/29 09:35:20;;;;;;;;;;;16.70;99.90;;;;;;5075942;28;885;-55
2021/12/29 09:37:46;;;;;;;;;;;16.70;99.90;;;;;;5075828;28;892;-54
2021/12/29 09:40:15;;;;;;;;;;;16.80;99.90;;;;;;5075879;28;1008;-54
2021/12/29 09:42:42;;;;;;;;;;;16.80;99.90;;;;;;5074857;28;1074;-55
2021/12/29 09:45:10;;;;;;;;;;;16.80;99.90;;;;;;5075702;28;911;-55
2021/12/29 09:47:36;;;;;;;;;;;16.80;99.90;;;;;;5074756;28;1913;-54
2021/12/29 09:50:03;;;;;;;;;;;16.80;99.90;;;;;;5074774;28;873;-54
2021/12/29 09:52:33;;;;;;;;;;;16.70;99.90;;;;;;5074474;28;1114;-54
2021/12/29 09:55:07;;;;;;;;;;;16.70;99.90;;;;;;5074951;28;1531;-46
2021/12/29 09:57:33;;;;;;;;;;;16.70;99.90;;;;;;5073475;28;1063;-45
2021/12/29 09:59:59;;;;;;;;;;;16.70;99.90;;;;;;5065445;28;1333;-45
2021/12/29 10:02:28;;;;;;;;;;;16.70;99.90;;;;;;5068541;28;1288;-46
2021/12/29 10:04:56;;;;;;;;;;;16.70;99.90;;;;;;5067790;28;1356;-46
2021/12/29 10:07:23;;;;;;;;;;;16.70;99.90;;;;;;5072314;28;1974;-45
2021/12/29 10:09:51;;;;;;;;;;;16.70;99.90;;;;;;5068865;28;1339;-45
2021/12/29 10:12:20;;;;;;;;;;;16.70;99.90;;;;;;5072351;28;1249;-46
2021/12/29 10:14:54;;;;;;;;;;;16.70;99.90;;;;;;5067647;28;1253;-46
2021/12/29 10:17:25;;;;;;;;;;;16.70;99.90;;;;;;5066486;28;1309;-46
2021/12/29 10:20:00;;;;;;;;;;;16.70;99.90;;;;;;5068588;28;1247;-54
2021/12/29 10:22:26;;;;;;;;;;;16.70;99.90;;;;;;5068887;28;1051;-53
2021/12/29 10:25:06;;;;;;;;;;;16.70;99.90;;;;;;5072235;28;1219;-53
2021/12/29 10:27:32;;;;;;;;;;;16.80;99.90;;;;;;5072761;28;1909;-54
2021/12/29 10:29:58;;;;;;;;;;;16.70;99.90;;;;;;5067916;28;1163;-47
2021/12/29 10:32:25;;;;;;;;;;;16.70;99.90;;;;;;5071453;28;1090;-46
2021/12/29 10:34:53;;;;;;;;;;;16.70;99.90;;;;;;5071531;28;1036;-55
2021/12/29 10:37:20;;;;;;;;;;;16.70;99.90;;;;;;5074019;28;1262;-46
2021/12/29 10:39:48;;;;;;;;;;;16.70;99.90;;;;;;5066782;28;1086;-45
2021/12/29 10:42:18;;;;;;;;;;;16.70;99.90;;;;;;5056757;28;1088;-45
2021/12/29 10:44:46;;;;;;;;;;;16.70;99.90;;;;;;5068739;28;1023;-45
2021/12/29 10:47:17;;;;;;;;;;;16.70;99.90;;;;;;5069730;28;1977;-45
2021/12/29 10:49:57;;;;;;;;;;;16.70;99.90;;;;;;5024521;28;1219;-54
2021/12/29 10:52:32;;;;;;;;;;;16.70;99.90;;;;;;5027323;28;1299;-54
2021/12/29 10:54:58;;;;;;;;;;;16.70;99.90;;;;;;5034864;28;870;-54
2021/12/29 10:57:26;;;;;;;;;;;16.70;99.90;;;;;;5035852;28;1160;-45
2021/12/29 10:59:58;;;;;;;;;;;16.70;99.90;;;;;;5028149;28;1421;-45
2021/12/29 11:02:31;;;;;;;;;;;16.70;99.90;;;;;;5036574;28;1104;-45
2021/12/29 11:04:58;;;;;;;;;;;16.70;99.90;;;;;;5017158;28;1034;-45
2021/12/29 11:07:27;;;;;;;;;;;16.70;99.90;;;;;;5036922;28;1977;-45
2021/12/29 11:10:01;;;;;;;;;;;16.70;99.90;;;;;;5027931;28;1096;-54
2021/12/29 11:12:28;;;;;;;;;;;16.70;99.90;;;;;;5037115;28;864;-46
2021/12/29 11:14:55;;;;;;;;;;;16.70;99.90;;;;;;5036989;28;912;-45
2021/12/29 11:17:23;;;;;;;;;;;16.70;99.90;;;;;;5036984;28;899;-45
2021/12/29 11:20:08;;;;;;;;;;;16.70;99.90;;;;;;5034166;28;1771;-55
2021/12/29 11:22:37;;;;;;;;;;;16.70;99.90;;;;;;5030867;28;1128;-55
2021/12/29 11:25:04;;;;;;;;;;;16.70;99.90;;;;;;5034752;28;961;-54
2021/12/29 11:27:31;;;;;;;;;;;16.70;99.90;;;;;;5055225;28;1905;-45
2021/12/29 11:29:58;;;;;;;;;;;16.70;99.90;;;;;;5071403;28;1024;-45
2021/12/29 11:32:29;;;;;;;;;;;16.70;99.90;;;;;;5072156;28;1055;-45
2021/12/29 11:35:13;;;;;;;;;;;16.70;99.90;;;;;;5070208;28;1381;-45
2021/12/29 11:37:40;;;;;;;;;;;16.70;99.90;;;;;;5072690;28;1223;-45
2021/12/29 11:40:07;;;;;;;;;;;16.70;99.90;;;;;;5073995;28;1214;-45
2021/12/29 11:42:33;;;;;;;;;;;16.70;99.90;;;;;;5078055;28;887;-45
2021/12/29 11:44:59;;;;;;;;;;;16.70;99.90;;;;;;5077166;28;1142;-45
2021/12/29 11:47:27;;;;;;;;;;;16.70;99.90;;;;;;5073784;28;1973;-45
2021/12/29 11:49:54;;;;;;;;;;;16.70;99.90;;;;;;5076084;28;1125;-45
2021/12/29 11:52:39;;;;;;;;;;;16.70;99.90;;;;;;5072513;28;1238;-45
2021/12/29 11:55:05;;;;;;;;;;;16.70;99.90;;;;;;5075723;28;1458;-45
2021/12/29 11:57:32;;;;;;;;;;;16.70;99.90;;;;;;5077239;28;881;-45
2021/12/29 12:00:09;;;;;;;;;;;16.60;99.90;;;;;;5078053;28;1702;-45
2021/12/29 12:02:35;;;;;;;;;;;16.60;99.90;;;;;;5077221;28;825;-45
2021/12/29 12:05:06;;;;;;;;;;;16.60;99.90;;;;;;5077545;28;871;-45
2021/12/29 12:07:32;;;;;;;;;;;16.70;99.90;;;;;;5076534;28;1981;-45
2021/12/29 12:10:02;;;;;;;;;;;16.60;99.90;;;;;;5071523;28;1060;-45
2021/12/29 12:12:39;;;;;;;;;;;16.70;99.90;;;;;;5079196;28;917;-45
2021/12/29 12:15:10;;;;;;;;;;;16.70;99.90;;;;;;5077490;28;1312;-44
2021/12/29 12:17:37;;;;;;;;;;;16.70;99.90;;;;;;5074585;28;1357;-45
2021/12/29 12:20:03;;;;;;;;;;;16.60;99.90;;;;;;5077057;28;868;-45
2021/12/29 12:22:40;;;;;;;;;;;16.60;99.90;;;;;;5071154;28;1157;-44
2021/12/29 12:25:06;;;;;;;;;;;16.60;99.90;;;;;;5069472;28;1273;-44
2021/12/29 12:27:34;;;;;;;;;;;16.60;99.90;;;;;;5072030;28;1967;-44
2021/12/29 12:30:08;;;;;;;;;;;16.60;99.90;;;;;;5073596;28;1154;-44
2021/12/29 12:32:43;;;;;;;;;;;16.60;99.90;;;;;;5067542;28;1058;-44
2021/12/29 12:35:10;;;;;;;;;;;16.60;99.90;;;;;;5070113;28;1106;-44
2021/12/29 12:37:41;;;;;;;;;;;16.60;99.90;;;;;;5069638;28;1039;-45
2021/12/29 12:40:07;;;;;;;;;;;16.60;99.90;;;;;;5074367;28;1043;-45
2021/12/29 12:42:34;;;;;;;;;;;16.60;99.90;;;;;;5075780;28;883;-45
2021/12/29 12:45:02;;;;;;;;;;;16.60;99.90;;;;;;5070475;28;1137;-45
2021/12/29 12:47:30;;;;;;;;;;;16.60;99.90;;;;;;5076776;28;1971;-45
2021/12/29 12:49:58;;;;;;;;;;;16.60;99.90;;;;;;5076783;28;970;-45
2021/12/29 12:52:26;;;;;;;;;;;16.60;99.90;;;;;;5075774;28;1030;-45
2021/12/29 12:54:54;;;;;;;;;;;16.50;99.90;;;;;;5076494;28;953;-44
2021/12/29 12:57:37;;;;;;;;;;;16.50;99.90;;;;;;5076259;28;845;-44
2021/12/29 13:00:14;;;;;;;;;;;16.50;99.90;;;;;;5072719;28;1040;-44
2021/12/29 13:02:48;;;;;;;;;;;16.60;99.90;;;;;;5075691;28;711;-44
2021/12/29 13:05:15;;;;;;;;;;;16.50;99.90;;;;;;5076263;28;1087;-44
2021/12/29 13:07:42;;;;;;;;;;;16.50;99.90;;;;;;5074831;28;1999;-44
2021/12/29 13:10:10;;;;;;;;;;;16.50;99.90;;;;;;5076172;28;909;-46
2021/12/29 13:12:39;;;;;;;;;;;16.50;99.90;;;;;;5074925;28;897;-45
2021/12/29 13:15:24;;;;;;;;;;;16.50;99.90;;;;;;5074636;28;926;-45
2021/12/29 13:17:50;;;;;;;;;;;16.50;99.90;;;;;;5072641;28;872;-45
2021/12/29 13:20:16;;;;;;;;;;;16.50;99.90;;;;;;5073323;28;1308;-45
2021/12/29 13:22:43;;;;;;;;;;;16.50;99.90;;;;;;5073464;28;1432;-45
2021/12/29 13:25:31;;;;;;;;;;;16.50;99.90;;;;;;5075927;28;859;-45
2021/12/29 13:28:02;;;;;;;;;;;16.50;99.90;;;;;;5071978;28;2262;-45
2021/12/29 13:30:36;;;;;;;;;;;16.50;99.90;;;;;;5022660;28;975;-45
2021/12/29 13:33:02;;;;;;;;;;;16.50;99.90;;;;;;5073789;28;1470;-45
2021/12/29 13:35:30;;;;;;;;;;;16.50;99.90;;;;;;5073038;28;1190;-45
2021/12/29 13:37:58;;;;;;;;;;;16.50;99.90;;;;;;5068740;28;1388;-45
2021/12/29 13:40:30;;;;;;;;;;;16.40;99.90;;;;;;5071303;28;1107;-45
2021/12/29 13:42:56;;;;;;;;;;;16.50;99.90;;;;;;5070759;28;855;-45
2021/12/29 13:45:23;;;;;;;;;;;16.50;99.90;;;;;;5071499;28;1153;-45
2021/12/29 13:47:49;;;;;;;;;;;16.40;99.90;;;;;;5074817;28;1909;-45
2021/12/29 13:50:16;;;;;;;;;;;16.40;99.90;;;;;;5075852;28;1084;-45
2021/12/29 13:53:03;;;;;;;;;;;16.40;99.90;;;;;;5073924;28;1326;-45
2021/12/29 13:55:38;;;;;;;;;;;16.40;99.90;;;;;;5056651;28;1102;-45
2021/12/29 13:58:04;;;;;;;;;;;16.40;99.90;;;;;;5071876;28;1597;-45
2021/12/29 14:00:31;;;;;;;;;;;16.40;99.90;;;;;;5075350;28;1206;-45
2021/12/29 14:02:57;;;;;;;;;;;16.40;99.90;;;;;;5071119;28;1048;-45
2021/12/29 14:05:34;;;;;;;;;;;16.40;99.90;;;;;;5068310;28;1055;-45
2021/12/29 14:08:00;;;;;;;;;;;16.40;99.90;;;;;;5072130;28;1979;-45
2021/12/29 14:10:27;;;;;;;;;;;16.40;99.90;;;;;;5069272;28;1275;-45
2021/12/29 14:12:53;;;;;;;;;;;16.40;99.90;;;;;;5074223;28;1235;-45
2021/12/29 14:15:23;;;;;;;;;;;16.40;99.90;;;;;;5075481;28;741;-45
2021/12/29 14:17:53;;;;;;;;;;;16.40;99.90;;;;;;5075507;28;915;-45
2021/12/29 14:20:19;;;;;;;;;;;16.30;99.90;;;;;;5069092;28;1015;-45
2021/12/29 14:22:47;;;;;;;;;;;16.20;99.90;;;;;;5075696;28;1062;-45
2021/12/29 14:25:15;;;;;;;;;;;16.00;99.90;;;;;;5073899;28;996;-45
2021/12/29 14:27:49;;;;;;;;;;;15.90;99.90;;;;;;5056919;28;1909;-45
2021/12/29 14:30:19;;;;;;;;;;;15.90;99.90;;;;;;5072756;28;1129;-45
2021/12/29 14:32:58;;;;;;;;;;;15.80;99.90;;;;;;5076144;28;1032;-45
2021/12/29 14:35:25;;;;;;;;;;;15.70;99.90;;;;;;5073770;28;1193;-45
2021/12/29 14:37:53;;;;;;;;;;;15.70;99.90;;;;;;5072676;28;1154;-45
2021/12/29 14:40:24;;;;;;;;;;;15.60;99.90;;;;;;5076947;28;1126;-47
2021/12/29 14:42:50;;;;;;;;;;;15.60;99.90;;;;;;5073575;28;1139;-45
2021/12/29 14:45:16;;;;;;;;;;;15.60;99.90;;;;;;5077706;28;1031;-45
2021/12/29 14:47:49;;;;;;;;;;;15.60;99.90;;;;;;5077497;28;1973;-45